Time;durP1;ratioP1;P1;durP2;ratioP2;P2;SDS_P1;SDS_P2;PMS_P1;PMS_P2;Temp;Humidity;BMP_temperature;BMP_pressure;BME280_temperature;BME280_humidity;BME280_pressure;Samples;Min_cycle;Max_cycle;Signal;HPM_P1;HPM_P2
2022/05/03 00:00:07;;;;;;;;;;;;;;;12.04;100.00;99868.81;5054216;28;19951;-60
2022/05/03 00:02:33;;;;;;;;;;;;;;;12.02;100.00;99875.13;5054005;28;19913;-60
2022/05/03 00:04:58;;;;;;;;;;;;;;;11.98;100.00;99868.19;5054035;28;19965;-60
2022/05/03 00:07:26;;;;;;;;;;;;;;;11.88;100.00;99867.66;5053961;28;19923;-60
2022/05/03 00:10:08;;;;;;;;;;;;;;;11.86;100.00;99866.91;5049518;28;19947;-60
2022/05/03 00:12:59;;;;;;;;;;;;;;;11.88;100.00;99857.00;5054047;28;19915;-60
2022/05/03 00:15:25;;;;;;;;;;;;;;;11.92;100.00;99869.31;5051677;28;19916;-60
2022/05/03 00:17:51;;;;;;;;;;;;;;;11.83;100.00;99864.31;5053819;28;19936;-60
2022/05/03 00:20:16;;;;;;;;;;;;;;;11.74;100.00;99859.38;5053855;28;20376;-60
2022/05/03 00:22:43;;;;;;;;;;;;;;;11.62;100.00;99857.16;5038913;28;20003;-60
2022/05/03 00:25:08;;;;;;;;;;;;;;;11.58;100.00;99851.06;5032856;28;19913;-60
2022/05/03 00:27:34;;;;;;;;;;;;;;;11.54;100.00;99861.91;5032505;28;19936;-60
2022/05/03 00:29:59;;;;;;;;;;;;;;;11.54;100.00;99856.59;5033611;28;19920;-60
2022/05/03 00:32:28;;;;;;;;;;;;;;;11.50;100.00;99861.16;5033998;28;20113;-60
2022/05/03 00:34:56;;;;;;;;;;;;;;;11.50;100.00;99862.94;5033728;28;19954;-60
2022/05/03 00:37:21;;;;;;;;;;;;;;;11.49;100.00;99859.44;5052137;28;19924;-60
2022/05/03 00:39:46;;;;;;;;;;;;;;;11.54;100.00;99856.59;5053559;28;19915;-60
2022/05/03 00:42:11;;;;;;;;;;;;;;;11.50;100.00;99860.28;5053530;28;20389;-60
2022/05/03 00:44:56;;;;;;;;;;;;;;;11.40;100.00;99865.09;5053420;28;20603;-60
2022/05/03 00:47:39;;;;;;;;;;;;;;;11.32;100.00;99868.97;5048800;28;19913;-60
2022/05/03 00:50:06;;;;;;;;;;;;;;;11.28;100.00;99856.72;5053416;28;19973;-60
2022/05/03 00:52:43;;;;;;;;;;;;;;;11.34;100.00;99854.69;5053212;28;19935;-60
2022/05/03 00:55:11;;;;;;;;;;;;;;;11.29;100.00;99861.13;5053362;28;19987;-60
2022/05/03 00:58:09;;;;;;;;;;;;;;;11.29;100.00;99866.44;5053196;28;19923;-60
2022/05/03 01:00:40;;;;;;;;;;;;;;;11.26;100.00;99866.56;5017526;28;20295;-60
2022/05/03 01:03:18;;;;;;;;;;;;;;;11.23;100.00;99867.56;5052861;28;19908;-60
2022/05/03 01:06:11;;;;;;;;;;;;;;;11.25;100.00;99859.50;5053046;28;19919;-60
2022/05/03 01:09:09;;;;;;;;;;;;;;;11.22;100.00;99870.28;5053127;28;20388;-60
2022/05/03 01:11:47;;;;;;;;;;;;;;;11.19;100.00;99865.91;4998042;28;20363;-60
2022/05/03 01:14:30;;;;;;;;;;;;;;;11.14;100.00;99872.34;5053254;28;19909;-60
2022/05/03 01:17:02;;;;;;;;;;;;;;;11.06;100.00;99861.09;5052741;28;19909;-60
2022/05/03 01:19:43;;;;;;;;;;;;;;;10.98;100.00;99861.41;5052355;28;19909;-60
2022/05/03 01:22:31;;;;;;;;;;;;;;;10.99;100.00;99857.81;5109970;27;19912;-59
2022/05/03 01:24:56;;;;;;;;;;;;;;;10.95;100.00;99852.66;5109920;28;19916;-59
2022/05/03 01:27:35;;;;;;;;;;;;;;;10.92;100.00;99856.31;5109685;28;19934;-59
2022/05/03 01:30:01;;;;;;;;;;;;;;;10.97;100.00;99853.47;5109745;28;19951;-59
2022/05/03 01:32:27;;;;;;;;;;;;;;;10.94;100.00;99870.41;5109215;28;19926;-59
2022/05/03 01:34:52;;;;;;;;;;;;;;;10.87;100.00;99862.72;5109776;28;20371;-59
2022/05/03 01:37:36;;;;;;;;;;;;;;;10.84;100.00;99863.69;5109559;28;20341;-59
2022/05/03 01:40:02;;;;;;;;;;;;;;;10.80;100.00;99855.88;5109626;28;20264;-59
2022/05/03 01:42:33;;;;;;;;;;;;;;;10.78;100.00;99860.38;5109473;28;20002;-59
2022/05/03 01:45:06;;;;;;;;;;;;;;;10.77;100.00;99861.31;5109110;28;19923;-59
2022/05/03 01:47:49;;;;;;;;;;;;;;;10.75;100.00;99865.81;5108022;28;20007;-59
2022/05/03 01:50:24;;;;;;;;;;;;;;;10.68;100.00;99867.81;5108016;28;19946;-59
2022/05/03 01:52:59;;;;;;;;;;;;;;;10.61;100.00;99856.53;5108153;28;19912;-59
2022/05/03 01:55:43;;;;;;;;;;;;;;;10.54;100.00;99862.97;5109043;28;20003;-59
2022/05/03 01:58:27;;;;;;;;;;;;;;;10.56;100.00;99862.91;5109401;28;19938;-59
2022/05/03 02:01:13;;;;;;;;;;;;;;;10.56;100.00;99858.47;5108959;28;19949;-59
2022/05/03 02:03:38;;;;;;;;;;;;;;;10.59;100.00;99858.38;5108524;28;19920;-59
2022/05/03 02:06:10;;;;;;;;;;;;;;;10.60;100.00;99856.59;5108882;28;19912;-59
2022/05/03 02:08:50;;;;;;;;;;;;;;;10.54;100.00;99857.66;5109055;28;20029;-59
2022/05/03 02:11:18;;;;;;;;;;;;;;;10.53;100.00;99863.03;5105595;28;20370;-59
2022/05/03 02:17:00;;;;;;;;;;;;;;;10.50;100.00;99864.03;5114441;28;20286;-59
2022/05/03 02:19:44;;;;;;;;;;;;;;;10.48;100.00;99862.31;5129534;28;19918;-59
2022/05/03 02:22:28;;;;;;;;;;;;;;;10.46;100.00;99857.06;5128811;28;19919;-59
2022/05/03 02:25:11;;;;;;;;;;;;;;;10.44;100.00;99864.22;5124781;28;19916;-59
2022/05/03 02:27:38;;;;;;;;;;;;;;;10.42;100.00;99858.09;5088453;28;19912;-59
2022/05/03 02:30:04;;;;;;;;;;;;;;;10.32;100.00;99864.66;5088496;28;20015;-59
2022/05/03 02:32:50;;;;;;;;;;;;;;;10.29;100.00;99864.75;5080891;28;19966;-59
2022/05/03 02:35:20;;;;;;;;;;;;;;;10.26;100.00;99867.50;5075180;28;19919;-59
2022/05/03 02:38:05;;;;;;;;;;;;;;;10.28;100.00;99867.47;5074643;28;19975;-59
2022/05/03 02:40:31;;;;;;;;;;;;;;;10.27;100.00;99863.06;5077194;28;20401;-59
2022/05/03 02:42:57;;;;;;;;;;;;;;;10.24;100.00;99860.50;5094320;28;19916;-59
2022/05/03 02:45:23;;;;;;;;;;;;;;;10.20;100.00;99862.41;5094457;28;20106;-59
2022/05/03 02:47:54;;;;;;;;;;;;;;;10.12;100.00;99864.44;5094949;28;20684;-59
2022/05/03 02:50:33;;;;;;;;;;;;;;;10.14;100.00;99862.63;5094869;28;19912;-59
2022/05/03 02:53:02;;;;;;;;;;;;;;;10.09;100.00;99861.91;5094399;28;20290;-59
2022/05/03 02:55:47;;;;;;;;;;;;;;;10.13;100.00;99867.97;5094640;28;19945;-59
2022/05/03 02:58:15;;;;;;;;;;;;;;;10.17;100.00;99858.97;5094750;28;19912;-59
2022/05/03 03:03:51;;;;;;;;;;;;;;;10.13;100.00;99852.03;5074574;28;20008;-59
2022/05/03 03:06:21;;;;;;;;;;;;;;;10.12;100.00;99855.59;5074287;28;19943;-59
2022/05/03 03:08:49;;;;;;;;;;;;;;;10.02;100.00;99857.66;5073267;28;19919;-59
2022/05/03 03:11:32;;;;;;;;;;;;;;;9.96;100.00;99860.53;5072444;28;19939;-59
2022/05/03 03:13:58;;;;;;;;;;;;;;;9.90;100.00;99858.03;5080176;28;20350;-59
2022/05/03 03:16:30;;;;;;;;;;;;;;;9.84;100.00;99857.38;5096130;28;20054;-59
2022/05/03 03:18:57;;;;;;;;;;;;;;;9.80;100.00;99859.25;5091850;28;19923;-59
2022/05/03 03:21:24;;;;;;;;;;;;;;;9.85;100.00;99857.31;5089214;28;20593;-59
2022/05/03 03:23:51;;;;;;;;;;;;;;;9.79;100.00;99857.53;5090915;28;20329;-59
2022/05/03 03:26:17;;;;;;;;;;;;;;;9.66;100.00;99853.53;5094002;28;19912;-59
2022/05/03 03:28:46;;;;;;;;;;;;;;;9.59;100.00;99859.94;5094084;28;19912;-59
2022/05/03 03:31:11;;;;;;;;;;;;;;;9.56;100.00;99859.16;5093395;28;20018;-59
2022/05/03 03:33:38;;;;;;;;;;;;;;;9.54;100.00;99861.88;5093699;28;19995;-59
2022/05/03 03:36:03;;;;;;;;;;;;;;;9.58;100.00;99860.00;5090437;28;19918;-59
2022/05/03 03:38:36;;;;;;;;;;;;;;;9.61;100.00;99852.81;5093386;28;19916;-59
2022/05/03 03:41:02;;;;;;;;;;;;;;;9.61;100.00;99862.53;5091760;28;19927;-59
2022/05/03 03:43:27;;;;;;;;;;;;;;;9.61;100.00;99868.75;5088857;28;20425;-59
2022/05/03 03:45:53;;;;;;;;;;;;;;;9.51;100.00;99871.72;5071283;28;19913;-59
2022/05/03 03:48:18;;;;;;;;;;;;;;;9.43;100.00;99864.00;5071777;28;19916;-59
2022/05/03 03:50:44;;;;;;;;;;;;;;;9.39;100.00;99870.28;5071842;28;19912;-59
2022/05/03 03:53:10;;;;;;;;;;;;;;;9.31;100.00;99874.97;5072004;28;19912;-59
2022/05/03 03:55:35;;;;;;;;;;;;;;;9.27;100.00;99870.69;5071791;28;19922;-59
2022/05/03 03:58:01;;;;;;;;;;;;;;;9.22;100.00;99876.09;5072779;28;20291;-60
2022/05/03 04:00:26;;;;;;;;;;;;;;;9.27;100.00;99878.66;5072956;28;20011;-60
2022/05/03 04:02:52;;;;;;;;;;;;;;;9.29;100.00;99869.72;5092903;28;19929;-60
2022/05/03 04:05:19;;;;;;;;;;;;;;;9.31;100.00;99875.84;5093389;28;19916;-60
2022/05/03 04:07:45;;;;;;;;;;;;;;;9.33;100.00;99870.50;5092862;28;19912;-59
2022/05/03 04:10:10;;;;;;;;;;;;;;;9.33;100.00;99862.53;5093335;28;19912;-60
2022/05/03 04:12:36;;;;;;;;;;;;;;;9.35;100.00;99871.31;5090002;28;19912;-60
2022/05/03 04:15:01;;;;;;;;;;;;;;;9.31;100.00;99869.66;5088151;28;20052;-60
2022/05/03 04:17:26;;;;;;;;;;;;;;;9.29;100.00;99872.38;5103871;28;20056;-60
2022/05/03 04:19:52;;;;;;;;;;;;;;;9.24;100.00;99870.78;5092980;28;19919;-59
2022/05/03 04:22:23;;;;;;;;;;;;;;;9.26;100.00;99882.19;5092676;28;19921;-59
2022/05/03 04:24:48;;;;;;;;;;;;;;;9.29;100.00;99882.13;5093043;28;19916;-59
2022/05/03 04:27:15;;;;;;;;;;;;;;;9.28;100.00;99875.06;5092527;28;19923;-59
2022/05/03 04:29:40;;;;;;;;;;;;;;;9.37;100.00;99872.16;5093005;28;19934;-59
2022/05/03 04:32:05;;;;;;;;;;;;;;;9.40;100.00;99880.03;5092554;28;19912;-60
2022/05/03 04:34:30;;;;;;;;;;;;;;;9.41;100.00;99881.75;5092876;28;19912;-60
2022/05/03 04:36:57;;;;;;;;;;;;;;;9.36;100.00;99878.34;5092114;28;19912;-60
2022/05/03 04:39:22;;;;;;;;;;;;;;;9.37;100.00;99880.13;5080267;28;19944;-60
2022/05/03 04:41:47;;;;;;;;;;;;;;;9.45;100.00;99883.41;5072009;28;20350;-60
2022/05/03 04:44:13;;;;;;;;;;;;;;;9.55;100.00;99890.19;5079400;28;19919;-59
2022/05/03 04:46:38;;;;;;;;;;;;;;;9.64;100.00;99884.56;5091015;28;20010;-59
2022/05/03 04:49:03;;;;;;;;;;;;;;;9.74;100.00;99890.47;5091039;28;20368;-59
2022/05/03 04:51:29;;;;;;;;;;;;;;;9.79;100.00;99899.16;5092473;28;19970;-59
2022/05/03 04:53:55;;;;;;;;;;;;;;;9.80;100.00;99891.13;5088059;28;19919;-59
2022/05/03 04:56:24;;;;;;;;;;;;;;;9.83;100.00;99893.72;5071861;28;19917;-59
2022/05/03 04:58:50;;;;;;;;;;;;;;;9.85;100.00;99896.31;5072082;28;19912;-59
2022/05/03 05:01:16;;;;;;;;;;;;;;;10.00;100.00;99899.34;5072090;28;19917;-59
2022/05/03 05:03:42;;;;;;;;;;;;;;;10.08;100.00;99902.66;5071968;28;19916;-59
2022/05/03 05:06:07;;;;;;;;;;;;;;;10.21;100.00;99898.69;5072116;28;20398;-59
2022/05/03 05:08:33;;;;;;;;;;;;;;;10.34;100.00;99909.78;5071964;28;19912;-59
2022/05/03 05:10:58;;;;;;;;;;;;;;;10.43;100.00;99905.03;5071744;28;19924;-59
2022/05/03 05:13:23;;;;;;;;;;;;;;;10.60;100.00;99902.69;5073578;28;19923;-59
2022/05/03 05:15:49;;;;;;;;;;;;;;;10.73;100.00;99902.22;5088972;28;19971;-59
2022/05/03 05:18:16;;;;;;;;;;;;;;;10.78;100.00;99910.91;5109993;28;19912;-60
2022/05/03 05:20:41;;;;;;;;;;;;;;;10.79;100.00;99910.00;5112244;28;20554;-60
2022/05/03 05:23:07;;;;;;;;;;;;;;;10.78;100.00;99910.91;5112551;28;19915;-60
2022/05/03 05:25:32;;;;;;;;;;;;;;;10.99;100.00;99916.34;5112431;28;19916;-60
2022/05/03 05:27:57;;;;;;;;;;;;;;;11.27;100.00;99910.88;5111257;28;19958;-60
2022/05/03 05:30:22;;;;;;;;;;;;;;;11.37;100.00;99901.63;5112181;28;20010;-60
2022/05/03 05:32:48;;;;;;;;;;;;;;;11.53;100.00;99905.47;5106951;28;19916;-60
2022/05/03 05:35:14;;;;;;;;;;;;;;;11.91;100.00;99912.84;5072638;28;20319;-60
2022/05/03 05:37:40;;;;;;;;;;;;;;;12.30;100.00;99918.41;5071537;28;19913;-59
2022/05/03 05:40:05;;;;;;;;;;;;;;;12.39;99.50;99913.53;5070393;28;19969;-59
2022/05/03 05:42:31;;;;;;;;;;;;;;;12.48;98.48;99909.63;5071333;28;20552;-59
2022/05/03 05:44:56;;;;;;;;;;;;;;;12.85;100.00;99910.66;5086310;28;19918;-59
2022/05/03 05:47:22;;;;;;;;;;;;;;;13.52;100.00;99913.03;5091803;28;19912;-59
2022/05/03 05:49:47;;;;;;;;;;;;;;;13.51;96.68;99914.81;5091835;28;19957;-59
2022/05/03 05:54:56;;;;;;;;;;;;;;;13.27;94.44;99915.06;5091616;28;19919;-59
2022/05/03 05:57:22;;;;;;;;;;;;;;;13.15;95.32;99911.13;5091808;28;20364;-59
2022/05/03 05:59:47;;;;;;;;;;;;;;;13.21;96.60;99911.72;5091699;28;20071;-59
2022/05/03 06:02:14;;;;;;;;;;;;;;;13.35;96.90;99919.13;5091663;28;19916;-59
2022/05/03 06:04:39;;;;;;;;;;;;;;;13.47;96.86;99918.59;5091972;28;20443;-59
2022/05/03 06:07:05;;;;;;;;;;;;;;;13.59;96.36;99912.66;5091308;28;19920;-59
2022/05/03 06:09:30;;;;;;;;;;;;;;;13.68;95.89;99922.06;5095193;28;19922;-59
2022/05/03 06:11:55;;;;;;;;;;;;;;;13.86;96.05;99921.19;5095363;28;19919;-60
2022/05/03 06:14:20;;;;;;;;;;;;;;;14.04;95.47;99920.31;5095424;28;19915;-60
2022/05/03 06:16:49;;;;;;;;;;;;;;;14.17;94.64;99916.97;5100547;28;19912;-60
2022/05/03 06:19:15;;;;;;;;;;;;;;;14.35;93.31;99920.59;5115796;28;20316;-59
2022/05/03 06:21:40;;;;;;;;;;;;;;;14.42;93.45;99922.03;5115342;28;19931;-59
2022/05/03 06:24:06;;;;;;;;;;;;;;;14.59;91.55;99919.38;5115464;28;20086;-59
2022/05/03 06:26:31;;;;;;;;;;;;;;;14.76;91.17;99923.88;5115895;28;19930;-59
2022/05/03 06:28:57;;;;;;;;;;;;;;;14.97;89.28;99925.44;5115637;28;19998;-59
2022/05/03 06:31:24;;;;;;;;;;;;;;;15.25;89.66;99934.66;5115457;28;19919;-59
2022/05/03 06:33:49;;;;;;;;;;;;;;;15.46;86.55;99917.47;5086520;28;19920;-59
2022/05/03 06:36:15;;;;;;;;;;;;;;;15.77;86.18;99919.31;5074993;28;19938;-59
2022/05/03 06:38:40;;;;;;;;;;;;;;;15.92;85.07;99928.31;5074405;28;19969;-59
2022/05/03 06:41:06;;;;;;;;;;;;;;;16.20;85.03;99923.13;5079592;28;19979;-59
2022/05/03 06:43:31;;;;;;;;;;;;;;;16.27;83.08;99924.53;5094339;28;19946;-59
2022/05/03 06:45:56;;;;;;;;;;;;;;;16.23;81.12;99917.59;5094822;28;19954;-59
2022/05/03 06:48:22;;;;;;;;;;;;;;;16.11;81.25;99923.69;5094825;28;19920;-59
2022/05/03 06:50:47;;;;;;;;;;;;;;;16.01;81.41;99911.72;5094438;28;19916;-59
2022/05/03 06:53:12;;;;;;;;;;;;;;;16.14;82.11;99924.38;5094148;28;20387;-59
2022/05/03 06:55:37;;;;;;;;;;;;;;;16.59;81.31;99923.59;5093900;28;19923;-60
2022/05/03 06:58:03;;;;;;;;;;;;;;;17.01;79.01;99923.72;5094196;28;19912;-60
2022/05/03 07:00:28;;;;;;;;;;;;;;;17.38;77.67;99933.09;5076462;28;19927;-60
2022/05/03 07:02:53;;;;;;;;;;;;;;;17.91;74.64;99931.50;5074292;28;20296;-60
2022/05/03 07:05:19;;;;;;;;;;;;;;;18.29;72.40;99940.66;5074253;28;19919;-60
2022/05/03 07:07:44;;;;;;;;;;;;;;;18.73;71.43;99939.59;5074140;28;19912;-60
2022/05/03 07:10:09;;;;;;;;;;;;;;;19.08;69.09;99947.00;5074133;28;19919;-60
2022/05/03 07:12:35;;;;;;;;;;;;;;;18.91;68.46;99946.44;5076588;28;19944;-60
2022/05/03 07:15:00;;;;;;;;;;;;;;;18.68;68.39;99944.44;5089337;28;19920;-59
2022/05/03 07:22:58;;;;;;;;;;;;;;;18.16;68.93;99950.50;5114432;28;19923;-59
2022/05/03 07:25:23;;;;;;;;;;;;;;;18.26;71.61;99954.31;5100623;28;20395;-59
2022/05/03 07:27:52;;;;;;;;;;;;;;;18.50;70.91;99956.41;5072934;28;19921;-59
2022/05/03 07:30:18;;;;;;;;;;;;;;;18.42;69.37;99959.59;5073649;28;19912;-59
2022/05/03 07:32:44;;;;;;;;;;;;;;;18.79;70.85;99955.34;5073691;28;20316;-59
2022/05/03 07:35:16;;;;;;;;;;;;;;;19.58;70.06;99948.94;5073847;28;20005;-59
2022/05/03 07:37:42;;;;;;;;;;;;;;;20.30;65.97;99957.19;5073718;28;20478;-60
2022/05/03 07:40:08;;;;;;;;;;;;;;;20.84;63.32;99954.91;5072327;28;19995;-60
2022/05/03 07:42:34;;;;;;;;;;;;;;;20.95;61.38;99953.13;5073130;28;20380;-60
2022/05/03 07:44:59;;;;;;;;;;;;;;;21.59;59.27;99956.31;5088190;28;20436;-60
2022/05/03 07:47:25;;;;;;;;;;;;;;;22.04;55.92;99955.41;5093449;28;19963;-60
2022/05/03 07:49:50;;;;;;;;;;;;;;;22.24;55.92;99954.63;5093154;28;20291;-60
2022/05/03 07:52:16;;;;;;;;;;;;;;;22.50;53.86;99955.22;5093117;28;20375;-60
2022/05/03 07:54:41;;;;;;;;;;;;;;;22.16;53.48;99955.25;5089207;28;20326;-60
2022/05/03 07:57:07;;;;;;;;;;;;;;;22.50;51.78;99960.63;5083741;28;19959;-60
2022/05/03 07:59:33;;;;;;;;;;;;;;;22.89;52.27;99958.22;5092725;28;20002;-60
2022/05/03 08:01:59;;;;;;;;;;;;;;;23.43;51.69;99964.41;5092968;28;20447;-60
2022/05/03 08:04:24;;;;;;;;;;;;;;;23.82;50.45;99965.50;5092898;28;19959;-60
2022/05/03 08:06:50;;;;;;;;;;;;;;;23.61;49.29;99959.22;5092522;28;19962;-60
2022/05/03 08:09:15;;;;;;;;;;;;;;;24.11;49.70;99961.13;5091880;28;19957;-60
2022/05/03 08:11:41;;;;;;;;;;;;;;;24.30;49.36;99955.75;5081763;28;19916;-60
2022/05/03 08:14:06;;;;;;;;;;;;;;;24.44;48.41;99957.22;5080949;28;19981;-60
2022/05/03 08:16:32;;;;;;;;;;;;;;;24.46;47.72;99966.94;5096316;28;20395;-60
2022/05/03 08:18:58;;;;;;;;;;;;;;;23.96;47.76;99967.00;5113489;28;19922;-60
2022/05/03 08:21:23;;;;;;;;;;;;;;;22.95;50.79;99970.38;5112948;28;19968;-60
2022/05/03 08:23:49;;;;;;;;;;;;;;;22.28;51.99;99961.53;5113185;28;19941;-60
2022/05/03 08:26:15;;;;;;;;;;;;;;;21.66;54.12;99962.97;5113089;28;20431;-60
2022/05/03 08:28:41;;;;;;;;;;;;;;;21.73;55.33;99962.34;5113259;28;19912;-60
2022/05/03 08:31:07;;;;;;;;;;;;;;;22.22;57.67;99967.47;5101569;28;19919;-60
2022/05/03 08:33:33;;;;;;;;;;;;;;;23.09;51.44;99970.09;5076848;28;20015;-60
2022/05/03 08:35:58;;;;;;;;;;;;;;;23.55;48.81;99967.06;5091263;28;20049;-60
2022/05/03 08:43:51;;;;;;;;;;;;;;;24.40;48.48;99972.97;5087299;28;19966;-60
2022/05/03 08:46:19;;;;;;;;;;;;;;;24.66;48.68;99963.28;5088657;28;19912;-60
2022/05/03 08:48:45;;;;;;;;;;;;;;;24.78;46.28;99972.22;5092699;28;19920;-60
2022/05/03 08:51:13;;;;;;;;;;;;;;;24.90;46.30;99976.53;5092490;28;19964;-60
2022/05/03 08:53:39;;;;;;;;;;;;;;;25.18;45.54;99967.53;5092448;28;19916;-60
2022/05/03 08:56:05;;;;;;;;;;;;;;;25.60;45.49;99979.84;5091965;28;19923;-60
2022/05/03 08:58:31;;;;;;;;;;;;;;;25.61;45.70;99973.41;5091076;28;19912;-60
2022/05/03 09:00:56;;;;;;;;;;;;;;;25.66;45.35;99968.41;5076015;28;19916;-60
2022/05/03 09:03:21;;;;;;;;;;;;;;;25.66;46.35;99971.13;5070898;28;19912;-60
2022/05/03 09:05:47;;;;;;;;;;;;;;;25.74;45.63;99971.25;5070507;28;19916;-60
2022/05/03 09:08:20;;;;;;;;;;;;;;;26.13;42.93;99973.91;5070999;28;19992;-60
2022/05/03 09:10:46;;;;;;;;;;;;;;;25.94;44.06;99970.19;5070529;28;19916;-60
2022/05/03 09:13:18;;;;;;;;;;;;;;;26.04;44.56;99972.03;5073642;28;19957;-60
2022/05/03 09:15:47;;;;;;;;;;;;;;;26.09;46.65;99961.56;5092123;28;19912;-60
2022/05/03 09:18:39;;;;;;;;;;;;;;;26.11;45.86;99970.44;5109749;28;20317;-60
2022/05/03 09:24:03;;;;;;;;;;;;;;;26.68;43.76;99970.19;5112011;28;19976;-60
2022/05/03 09:26:30;;;;;;;;;;;;;;;26.60;43.80;99972.78;5112027;28;19998;-60
2022/05/03 09:29:05;;;;;;;;;;;;;;;26.94;43.35;99962.97;5077760;28;19919;-60
2022/05/03 09:31:39;;;;;;;;;;;;;;;27.42;41.51;99966.19;5071662;28;19936;-60
2022/05/03 09:34:27;;;;;;;;;;;;;;;27.63;41.80;99958.50;5071878;28;19989;-59
2022/05/03 09:36:52;;;;;;;;;;;;;;;28.02;41.57;99959.81;5071543;28;20379;-59
2022/05/03 09:39:25;;;;;;;;;;;;;;;27.81;39.36;99955.75;5071545;28;19996;-59
2022/05/03 09:42:06;;;;;;;;;;;;;;;27.91;41.53;99956.50;5070202;28;19963;-60
2022/05/03 09:44:36;;;;;;;;;;;;;;;27.87;39.68;99953.22;5083981;28;19918;-60
2022/05/03 09:47:05;;;;;;;;;;;;;;;27.78;39.29;99951.44;5094660;28;19923;-60
2022/05/03 09:49:35;;;;;;;;;;;;;;;28.10;42.66;99948.97;5089565;28;19916;-60
2022/05/03 09:52:01;;;;;;;;;;;;;;;28.38;40.40;99950.44;5080433;28;19917;-60
2022/05/03 09:54:28;;;;;;;;;;;;;;;28.34;40.05;99943.59;5075257;28;20399;-59
2022/05/03 09:56:54;;;;;;;;;;;;;;;28.07;40.46;99942.97;5075742;28;19927;-60
2022/05/03 09:59:19;;;;;;;;;;;;;;;28.11;40.60;99942.47;5090439;28;20302;-59
2022/05/03 10:01:45;;;;;;;;;;;;;;;28.01;39.29;99936.25;5083917;28;20418;-60
2022/05/03 10:04:13;;;;;;;;;;;;;;;28.11;41.97;99947.06;5081022;28;19927;-59
2022/05/03 10:06:39;;;;;;;;;;;;;;;28.23;41.98;99934.81;5090445;28;19930;-59
2022/05/03 10:09:04;;;;;;;;;;;;;;;28.82;39.58;99936.59;5088689;28;19920;-59
2022/05/03 10:11:30;;;;;;;;;;;;;;;28.61;39.36;99939.81;5075026;28;20011;-60
2022/05/03 10:13:55;;;;;;;;;;;;;;;28.48;40.16;99940.22;5081097;28;19919;-59
2022/05/03 10:21:57;;;;;;;;;;;;;;;28.82;37.78;99940.19;5092757;28;19927;-59
2022/05/03 10:24:24;;;;;;;;;;;;;;;29.36;39.02;99939.63;5092799;28;19916;-59
2022/05/03 10:26:52;;;;;;;;;;;;;;;28.48;37.76;99937.47;5092018;28;20002;-59
2022/05/03 10:29:17;;;;;;;;;;;;;;;27.75;41.26;99929.91;5081602;28;20371;-60
2022/05/03 10:31:54;;;;;;;;;;;;;;;27.15;40.56;99928.88;5085496;28;19923;-59
2022/05/03 10:34:40;;;;;;;;;;;;;;;26.56;42.48;99928.56;5074615;28;19930;-59
2022/05/03 10:37:10;;;;;;;;;;;;;;;25.97;44.20;99925.41;5075973;28;20383;-59
2022/05/03 10:39:43;;;;;;;;;;;;;;;26.03;43.53;99907.63;5091801;28;20502;-59
2022/05/03 10:42:13;;;;;;;;;;;;;;;26.47;44.95;99917.72;5078398;28;20291;-59
2022/05/03 10:44:42;;;;;;;;;;;;;;;26.68;44.10;99911.03;5082416;28;20009;-59
2022/05/03 10:47:08;;;;;;;;;;;;;;;26.82;41.17;99915.09;5074262;28;19955;-60
2022/05/03 10:49:33;;;;;;;;;;;;;;;27.85;41.24;99903.31;5074960;28;19913;-60
2022/05/03 10:51:59;;;;;;;;;;;;;;;28.41;40.05;99902.75;5074587;28;19927;-60
2022/05/03 10:54:24;;;;;;;;;;;;;;;28.71;37.08;99899.44;5075718;28;19909;-60
2022/05/03 10:57:07;;;;;;;;;;;;;;;29.12;39.37;99900.38;5089316;28;19920;-60
2022/05/03 10:59:46;;;;;;;;;;;;;;;29.56;37.78;99893.50;5094884;28;19956;-60
2022/05/03 11:02:12;;;;;;;;;;;;;;;29.81;36.96;99897.97;5082699;28;20010;-60
2022/05/03 11:04:56;;;;;;;;;;;;;;;28.63;38.84;99899.44;5073970;28;20023;-60
2022/05/03 11:07:24;;;;;;;;;;;;;;;27.70;39.16;99890.38;5092233;28;19916;-60
2022/05/03 11:09:50;;;;;;;;;;;;;;;26.85;41.25;99895.66;5093030;28;20314;-60
2022/05/03 11:12:15;;;;;;;;;;;;;;;26.84;43.15;99902.13;5085963;28;19916;-60
2022/05/03 11:14:44;;;;;;;;;;;;;;;27.32;40.44;99890.81;5088484;28;19923;-60
2022/05/03 11:17:10;;;;;;;;;;;;;;;28.25;41.13;99889.84;5099770;28;20394;-60
2022/05/03 11:19:37;;;;;;;;;;;;;;;28.35;39.02;99896.03;5091011;28;20451;-60
2022/05/03 11:22:08;;;;;;;;;;;;;;;27.99;37.72;99885.47;5072983;28;19921;-60
2022/05/03 11:24:35;;;;;;;;;;;;;;;28.09;38.41;99876.09;5073484;28;19912;-59
2022/05/03 11:27:08;;;;;;;;;;;;;;;28.11;40.72;99873.22;5072922;28;19920;-60
2022/05/03 11:29:38;;;;;;;;;;;;;;;28.69;40.29;99870.50;5074062;28;19939;-60
2022/05/03 11:32:06;;;;;;;;;;;;;;;28.50;38.34;99868.09;5073975;28;20380;-60
2022/05/03 11:34:31;;;;;;;;;;;;;;;28.95;39.11;99860.28;5073983;28;20372;-60
2022/05/03 11:36:57;;;;;;;;;;;;;;;29.63;38.40;99861.63;5074996;28;19979;-60
2022/05/03 11:39:22;;;;;;;;;;;;;;;30.36;36.64;99860.38;5072975;28;19912;-60
2022/05/03 11:41:48;;;;;;;;;;;;;;;30.76;37.62;99860.16;5073582;28;19942;-60
2022/05/03 11:44:15;;;;;;;;;;;;;;;30.75;36.69;99872.19;5082456;28;20007;-60
2022/05/03 11:46:42;;;;;;;;;;;;;;;31.26;35.19;99854.13;5093595;28;20264;-60
2022/05/03 11:49:09;;;;;;;;;;;;;;;31.66;34.58;99850.16;5094042;28;20002;-60
2022/05/03 11:57:14;;;;;;;;;;;;;;;31.79;35.57;99850.34;5093826;28;19962;-60
2022/05/03 11:59:40;;;;;;;;;;;;;;;32.36;35.27;99843.09;5093275;28;19930;-60
2022/05/03 12:02:22;;;;;;;;;;;;;;;31.61;32.47;99844.34;5093079;28;20326;-60
2022/05/03 12:05:17;;;;;;;;;;;;;;;29.29;35.31;99836.34;5092513;28;20480;-60
2022/05/03 12:07:42;;;;;;;;;;;;;;;28.18;37.79;99839.56;5093316;28;20290;-60
2022/05/03 12:10:20;;;;;;;;;;;;;;;28.08;37.00;99838.84;5093332;28;20007;-60
2022/05/03 12:12:46;;;;;;;;;;;;;;;28.64;36.82;99829.97;5093219;28;19916;-60
2022/05/03 12:15:19;;;;;;;;;;;;;;;28.74;35.94;99829.78;5076192;28;19995;-59
2022/05/03 12:17:57;;;;;;;;;;;;;;;29.08;35.83;99816.81;5100044;28;20422;-59
2022/05/03 12:20:22;;;;;;;;;;;;;;;29.16;34.30;99827.78;5113355;28;19912;-59
2022/05/03 12:23:10;;;;;;;;;;;;;;;29.68;35.60;99820.88;5109608;28;19960;-59
2022/05/03 12:25:37;;;;;;;;;;;;;;;29.76;33.91;99826.31;5075016;28;20413;-59
2022/05/03 12:28:04;;;;;;;;;;;;;;;29.32;37.35;99819.56;5072704;28;20351;-59
2022/05/03 12:30:29;;;;;;;;;;;;;;;30.37;38.97;99814.56;5072873;28;19916;-59
2022/05/03 12:32:54;;;;;;;;;;;;;;;30.06;36.34;99814.56;5072342;28;19943;-60
2022/05/03 12:35:28;;;;;;;;;;;;;;;29.72;37.56;99821.38;5072574;28;20014;-60
2022/05/03 12:37:53;;;;;;;;;;;;;;;30.59;37.73;99814.59;5072633;28;19916;-60
2022/05/03 12:40:26;;;;;;;;;;;;;;;31.50;36.73;99800.81;5075743;28;20082;-60
2022/05/03 12:42:51;;;;;;;;;;;;;;;31.76;35.37;99802.03;5072121;28;19917;-59
2022/05/03 12:45:19;;;;;;;;;;;;;;;32.42;34.66;99803.81;5089867;28;19916;-60
2022/05/03 12:47:45;;;;;;;;;;;;;;;32.38;35.68;99805.25;5092925;28;19970;-60
2022/05/03 12:50:10;;;;;;;;;;;;;;;32.24;34.70;99805.25;5092626;28;20325;-60
2022/05/03 12:52:35;;;;;;;;;;;;;;;32.62;32.32;99804.03;5092413;28;19944;-60
2022/05/03 12:55:01;;;;;;;;;;;;;;;32.44;31.97;99795.38;5092657;28;19938;-60
2022/05/03 13:00:11;;;;;;;;;;;;;;;32.28;33.87;99801.91;5092447;28;20303;-60
2022/05/03 13:02:37;;;;;;;;;;;;;;;32.45;32.91;99791.56;5092436;28;19955;-60
2022/05/03 13:05:02;;;;;;;;;;;;;;;32.36;34.15;99793.53;5092616;28;19963;-60
2022/05/03 13:07:27;;;;;;;;;;;;;;;32.59;34.52;99793.38;5092311;28;19919;-60
2022/05/03 13:09:53;;;;;;;;;;;;;;;32.16;32.11;99791.59;5092331;28;20039;-60
2022/05/03 13:12:18;;;;;;;;;;;;;;;32.22;32.97;99799.94;5092115;28;19923;-60
2022/05/03 13:14:44;;;;;;;;;;;;;;;31.65;32.89;99793.41;5092163;28;19916;-60
2022/05/03 13:17:09;;;;;;;;;;;;;;;30.65;32.08;99789.16;5100994;28;19920;-60
2022/05/03 13:19:35;;;;;;;;;;;;;;;29.94;34.16;99791.28;5112617;28;19918;-60
2022/05/03 13:22:00;;;;;;;;;;;;;;;29.65;33.13;99785.53;5112050;28;20432;-60
2022/05/03 13:24:26;;;;;;;;;;;;;;;29.40;34.14;99786.63;5112562;28;19912;-60
2022/05/03 13:26:51;;;;;;;;;;;;;;;28.86;34.31;99787.38;5110089;28;20359;-60